Time;durP1;ratioP1;P1;durP2;ratioP2;P2;SDS_P1;SDS_P2;PMS_P1;PMS_P2;Temp;Humidity;BMP_temperature;BMP_pressure;BME280_temperature;BME280_humidity;BME280_pressure;Samples;Min_cycle;Max_cycle;Signal;HPM_P1;HPM_P2
2022/10/01 00:00:17;;;;;;;11.47;7.90;;;;;;;10.65;100.00;100186.84;5031220;28;20041;-91
2022/10/01 00:02:42;;;;;;;9.00;6.90;;;;;;;10.69;100.00;100184.50;5031360;28;20373;-92
2022/10/01 00:05:10;;;;;;;11.00;7.53;;;;;;;10.70;100.00;100178.03;5030529;28;20175;-91
2022/10/01 00:07:39;;;;;;;9.30;6.70;;;;;;;10.65;100.00;100178.72;5031135;28;20048;-94
2022/10/01 00:10:06;;;;;;;10.63;7.43;;;;;;;10.68;100.00;100162.00;5003269;28;20132;-90
2022/10/01 00:12:32;;;;;;;9.17;6.87;;;;;;;10.68;100.00;100147.66;5031212;28;20063;-93
2022/10/01 00:14:57;;;;;;;8.00;6.70;;;;;;;10.62;100.00;100138.53;5029960;28;20081;-90
2022/10/01 00:17:23;;;;;;;9.53;7.37;;;;;;;10.63;100.00;100148.31;5031400;28;20058;-92
2022/10/01 00:19:48;;;;;;;9.67;6.70;;;;;;;10.74;100.00;100150.25;5030453;28;20033;-92
2022/10/01 00:22:14;;;;;;;9.43;6.93;;;;;;;10.72;100.00;100136.09;5030825;28;20041;-90
2022/10/01 00:24:39;;;;;;;7.37;6.57;;;;;;;10.75;100.00;100132.09;5031517;28;20050;-90
2022/10/01 00:27:05;;;;;;;7.90;6.53;;;;;;;10.71;100.00;100120.09;5031080;28;20152;-92
2022/10/01 00:29:30;;;;;;;9.27;7.20;;;;;;;10.71;100.00;100148.00;5030560;28;20611;-88
2022/10/01 00:31:56;;;;;;;8.13;6.53;;;;;;;10.69;100.00;100133.00;5031276;28;20296;-92
2022/10/01 00:34:22;;;;;;;8.80;6.90;;;;;;;10.68;100.00;100139.50;5031256;28;20064;-93
2022/10/01 00:36:48;;;;;;;11.63;7.80;;;;;;;10.77;100.00;100122.69;5031277;28;20036;-88
2022/10/01 00:39:14;;;;;;;7.37;5.73;;;;;;;10.66;100.00;100090.13;5029911;28;20041;-91
2022/10/01 00:41:41;;;;;;;7.70;6.50;;;;;;;10.74;100.00;100092.50;5031381;28;20041;-91
2022/10/01 00:44:28;;;;;;;9.03;6.53;;;;;;;10.88;100.00;100128.38;5030594;28;22162;-92
2022/10/01 00:46:55;;;;;;;10.40;7.00;;;;;;;10.77;100.00;100129.97;5031088;28;20045;-94
2022/10/01 00:49:25;;;;;;;10.67;7.23;;;;;;;10.80;100.00;100113.28;5030832;28;20119;-92
2022/10/01 00:51:56;;;;;;;10.43;6.47;;;;;;;10.70;100.00;100094.84;5030055;28;20467;-89
2022/10/01 00:54:32;;;;;;;7.40;6.60;;;;;;;10.81;100.00;100107.63;5030154;28;20041;-88
2022/10/01 00:57:00;;;;;;;9.37;7.30;;;;;;;10.70;100.00;100097.56;5030118;28;20039;-89
2022/10/01 00:59:27;;;;;;;7.17;5.90;;;;;;;10.62;100.00;100090.59;5028914;28;20796;-89
2022/10/01 01:01:52;;;;;;;7.93;5.60;;;;;;;10.75;100.00;100083.34;5029657;28;21309;-90
2022/10/01 01:04:18;;;;;;;8.53;6.43;;;;;;;10.79;100.00;100081.81;5007854;28;20540;-90
2022/10/01 01:06:47;;;;;;;10.77;7.10;;;;;;;10.76;100.00;100090.41;5012492;28;20550;-90
2022/10/01 01:09:12;;;;;;;8.43;6.23;;;;;;;10.72;100.00;100117.13;5029526;28;20026;-88
2022/10/01 01:11:49;;;;;;;11.23;7.33;;;;;;;10.58;100.00;100100.25;5007630;28;20621;-89
2022/10/01 01:14:28;;;;;;;11.77;6.93;;;;;;;10.53;100.00;100085.75;5029516;28;20434;-89
2022/10/01 01:17:01;;;;;;;11.30;6.60;;;;;;;10.51;100.00;100069.69;5029990;28;20037;-89
2022/10/01 01:19:26;;;;;;;9.07;7.73;;;;;;;10.38;100.00;100067.22;5028715;28;20037;-89
2022/10/01 01:21:59;;;;;;;9.00;7.10;;;;;;;10.33;100.00;100019.09;5029319;28;20060;-88
2022/10/01 01:24:30;;;;;;;6.73;6.03;;;;;;;10.35;100.00;100002.66;5029262;28;20581;-90
2022/10/01 01:27:20;;;;;;;7.60;6.13;;;;;;;10.35;100.00;100005.38;5031020;28;20090;-90
2022/10/01 01:30:07;;;;;;;7.97;7.17;;;;;;;10.25;100.00;99949.03;5030817;28;20040;-88
2022/10/01 01:32:45;;;;;;;7.10;6.40;;;;;;;10.35;100.00;99986.41;5029470;28;20063;-92
2022/10/01 01:35:18;;;;;;;9.97;6.57;;;;;;;10.39;100.00;99998.44;5029161;28;20037;-90
2022/10/01 01:37:50;;;;;;;6.90;6.20;;;;;;;10.35;100.00;99962.03;5002527;28;20067;-90
2022/10/01 01:40:18;;;;;;;10.50;7.23;;;;;;;10.35;100.00;100011.63;5029436;28;20036;-89
2022/10/01 01:42:45;;;;;;;8.67;6.63;;;;;;;10.41;100.00;100001.75;5029816;28;20036;-90
2022/10/01 01:45:19;;;;;;;9.33;6.67;;;;;;;10.39;100.00;100028.22;5019013;28;20037;-91
2022/10/01 01:47:45;;;;;;;7.63;5.82;;;;;;;10.38;100.00;100030.13;5028915;28;20075;-90
2022/10/01 01:50:14;;;;;;;7.37;5.50;;;;;;;10.43;100.00;100022.13;5029164;28;20499;-91
2022/10/01 01:52:40;;;;;;;7.13;5.43;;;;;;;10.44;100.00;100001.28;5029103;28;20037;-90
2022/10/01 01:55:07;;;;;;;8.27;5.70;;;;;;;10.43;100.00;99977.94;5006517;28;20388;-89
2022/10/01 01:57:38;;;;;;;6.27;5.27;;;;;;;10.41;100.00;99969.25;5007640;28;20049;-89
2022/10/01 02:00:03;;;;;;;7.07;5.07;;;;;;;10.52;100.00;99995.53;5029223;28;20075;-90
2022/10/01 02:02:34;;;;;;;5.97;4.97;;;;;;;10.45;100.00;99981.28;5029579;28;20124;-89
2022/10/01 02:05:03;;;;;;;7.17;5.87;;;;;;;10.39;100.00;99976.78;5028230;28;20037;-90
2022/10/01 02:07:47;;;;;;;7.37;5.43;;;;;;;10.47;100.00;99995.38;5029527;28;20254;-89
2022/10/01 02:10:15;;;;;;;6.78;5.00;;;;;;;10.55;100.00;99981.53;5027728;28;20542;-90
2022/10/01 02:13:02;;;;;;;6.17;4.70;;;;;;;10.42;100.00;99970.91;5029431;28;20037;-89
2022/10/01 02:15:37;;;;;;;8.10;6.20;;;;;;;10.38;100.00;99984.06;5027714;28;21189;-91
2022/10/01 02:18:08;;;;;;;7.63;5.20;;;;;;;10.46;100.00;99982.94;5028674;28;20689;-89
2022/10/01 02:20:38;;;;;;;6.63;5.20;;;;;;;10.36;100.00;99971.81;5027861;28;20038;-90
2022/10/01 02:23:16;;;;;;;9.80;6.43;;;;;;;10.31;100.00;99959.78;5029273;28;20039;-92
2022/10/01 02:25:47;;;;;;;7.40;5.30;;;;;;;10.33;100.00;99953.31;5028911;28;20033;-88
2022/10/01 02:28:17;;;;;;;6.27;4.83;;;;;;;10.27;100.00;99955.06;5018459;28;20134;-90
2022/10/01 02:30:45;;;;;;;4.47;4.07;;;;;;;10.30;100.00;99941.88;5027455;28;20041;-90
2022/10/01 02:33:17;;;;;;;4.47;4.03;;;;;;;10.36;100.00;99940.16;5006789;28;20112;-92
2022/10/01 02:35:44;;;;;;;5.33;4.20;;;;;;;10.35;100.00;99945.81;5028405;28;20052;-93
2022/10/01 02:38:13;;;;;;;4.00;3.60;;;;;;;10.31;100.00;99927.28;5028336;28;20037;-92
2022/10/01 02:40:43;;;;;;;4.87;3.80;;;;;;;10.30;100.00;99917.50;5028407;28;20575;-90
2022/10/01 02:43:16;;;;;;;5.00;3.70;;;;;;;10.35;100.00;99906.03;5028399;28;20800;-93
2022/10/01 02:45:46;;;;;;;3.47;3.17;;;;;;;10.36;100.00;99896.00;5028331;28;20029;-89
2022/10/01 02:48:16;;;;;;;3.33;3.03;;;;;;;10.38;100.00;99910.16;5010450;28;20037;-89
2022/10/01 02:51:14;;;;;;;5.87;3.50;;;;;;;10.44;100.00;99907.34;5026655;28;20539;-91
2022/10/01 02:53:43;;;;;;;6.00;4.20;;;;;;;10.40;100.00;99910.72;5028037;28;20048;-90
2022/10/01 02:56:13;;;;;;;5.77;4.23;;;;;;;10.54;100.00;99936.53;5028340;28;20033;-90
2022/10/01 02:58:40;;;;;;;4.53;3.30;;;;;;;10.56;100.00;99929.00;5027245;28;20457;-93
2022/10/01 03:01:05;;;;;;;6.23;3.50;;;;;;;10.49;100.00;99916.66;5027745;28;20033;-91
2022/10/01 03:03:31;;;;;;;5.43;3.60;;;;;;;10.56;100.00;99917.34;5029064;28;20436;-89
2022/10/01 03:05:56;;;;;;;5.80;4.17;;;;;;;10.51;100.00;99906.38;5027179;28;20068;-91
2022/10/01 03:08:22;;;;;;;6.07;4.23;;;;;;;10.47;100.00;99914.97;5027574;28;20039;-90
2022/10/01 03:10:47;;;;;;;3.73;3.17;;;;;;;10.61;100.00;99920.19;5028037;28;20033;-89
2022/10/01 03:13:13;;;;;;;3.63;2.73;;;;;;;10.71;100.00;99943.97;5027033;28;20603;-92
2022/10/01 03:15:39;;;;;;;3.00;2.80;;;;;;;10.63;100.00;99918.06;5005864;28;20405;-90
2022/10/01 03:18:04;;;;;;;5.10;3.27;;;;;;;10.60;100.00;99932.88;5026443;28;20045;-88
2022/10/01 03:20:29;;;;;;;4.20;3.23;;;;;;;10.63;100.00;99905.34;5026737;28;20037;-90
2022/10/01 03:22:55;;;;;;;3.87;3.30;;;;;;;10.70;100.00;99917.94;5027207;28;20069;-89
2022/10/01 03:25:20;;;;;;;3.03;2.73;;;;;;;10.73;100.00;99936.41;5004673;28;20092;-89
2022/10/01 03:27:45;;;;;;;2.57;2.37;;;;;;;10.68;100.00;99910.03;5027195;28;20037;-89
2022/10/01 03:30:11;;;;;;;4.80;3.20;;;;;;;10.71;100.00;99908.75;5025151;28;20532;-89
2022/10/01 03:32:37;;;;;;;7.23;4.20;;;;;;;10.76;100.00;99917.81;5027354;28;20097;-90
2022/10/01 03:35:02;;;;;;;3.63;2.60;;;;;;;10.80;100.00;99910.88;5026725;28;20128;-90
2022/10/01 03:37:28;;;;;;;4.93;2.60;;;;;;;10.66;100.00;99895.91;5027310;28;20077;-89
2022/10/01 03:39:53;;;;;;;2.40;2.20;;;;;;;10.79;100.00;99916.53;5026587;28;20780;-89
2022/10/01 03:42:18;;;;;;;2.70;2.50;;;;;;;10.79;100.00;99905.69;5005398;28;20374;-92
2022/10/01 03:44:44;;;;;;;3.27;2.20;;;;;;;11.01;100.00;99918.63;5027259;28;20705;-89
2022/10/01 03:47:09;;;;;;;2.37;2.20;;;;;;;10.97;100.00;99911.00;5027185;28;20491;-89
2022/10/01 03:49:35;;;;;;;2.43;2.13;;;;;;;10.90;100.00;99918.41;5026918;28;20194;-92
2022/10/01 03:52:02;;;;;;;2.10;2.00;;;;;;;10.85;100.00;99926.41;5026898;28;20037;-90
2022/10/01 03:54:29;;;;;;;2.23;2.07;;;;;;;10.96;100.00;99922.88;4988660;28;20069;-89
2022/10/01 03:56:54;;;;;;;1.93;1.83;;;;;;;11.03;100.00;99925.47;5026941;28;20069;-89
2022/10/01 03:59:20;;;;;;;2.17;1.97;;;;;;;10.99;100.00;99932.44;5026624;28;20124;-91
2022/10/01 04:01:45;;;;;;;2.13;1.60;;;;;;;11.09;100.00;99927.22;5025966;28;20732;-92
2022/10/01 04:04:10;;;;;;;1.70;1.60;;;;;;;11.08;100.00;99932.88;5026699;28;21486;-91
2022/10/01 04:06:36;;;;;;;1.70;1.60;;;;;;;11.14;100.00;99930.03;5027190;28;20632;-90
2022/10/01 04:09:01;;;;;;;2.10;1.90;;;;;;;11.18;100.00;99935.81;5026328;28;20064;-90
2022/10/01 04:11:27;;;;;;;1.80;1.70;;;;;;;11.13;100.00;99930.28;5026958;28;20041;-89
2022/10/01 04:13:52;;;;;;;1.77;1.67;;;;;;;11.13;100.00;99933.81;5027002;28;20029;-90
2022/10/01 04:16:18;;;;;;;2.57;1.80;;;;;;;11.20;100.00;99938.28;5031787;28;21527;-88
2022/10/01 04:18:43;;;;;;;2.67;1.40;;;;;;;11.26;100.00;99943.59;5033807;28;20048;-90
2022/10/01 04:21:09;;;;;;;2.03;1.80;;;;;;;11.20;100.00;99936.41;5030282;28;20025;-90
2022/10/01 04:23:34;;;;;;;2.17;1.40;;;;;;;11.24;100.00;99937.56;5026611;28;20045;-89
2022/10/01 04:26:01;;;;;;;3.60;1.60;;;;;;;11.26;100.00;99921.91;5026755;28;20044;-89
2022/10/01 04:28:27;;;;;;;5.87;1.47;;;;;;;11.38;100.00;99942.72;5015162;28;20148;-90
2022/10/01 04:31:23;;;;;;;2.40;1.40;;;;;;;11.32;100.00;99939.09;5026665;28;20033;-92
2022/10/01 04:33:38;;;;;;;1.30;1.30;;;;;;;11.36;100.00;99934.84;5026650;28;20055;-91
2022/10/01 04:36:03;;;;;;;3.50;1.30;;;;;;;11.37;100.00;99943.78;5026749;28;20036;-92
2022/10/01 04:38:29;;;;;;;2.50;1.20;;;;;;;11.48;100.00;99941.06;5026346;28;20612;-91
2022/10/01 04:40:54;;;;;;;3.70;1.63;;;;;;;11.42;100.00;99935.75;5026327;28;20495;-89
2022/10/01 04:43:19;;;;;;;1.73;1.17;;;;;;;11.51;100.00;99945.19;5029991;28;20580;-91
2022/10/01 04:45:44;;;;;;;2.63;1.50;;;;;;;11.51;100.00;99945.19;5029290;28;20041;-90
2022/10/01 04:48:10;;;;;;;2.30;1.50;;;;;;;11.45;100.00;99946.97;5029986;28;20037;-91
2022/10/01 04:50:35;;;;;;;2.97;1.30;;;;;;;11.50;100.00;99959.81;5011457;28;20165;-90
2022/10/01 04:53:00;;;;;;;1.30;1.30;;;;;;;11.55;100.00;99959.91;5011817;28;20037;-91
2022/10/01 04:55:26;;;;;;;1.63;1.53;;;;;;;11.62;100.00;99960.59;5030183;28;20060;-89
2022/10/01 04:57:51;;;;;;;1.70;1.50;;;;;;;11.57;100.00;99963.22;5030128;28;20037;-90
2022/10/01 05:00:20;;;;;;;1.37;1.27;;;;;;;11.68;100.00;99975.09;5028963;28;20094;-90
2022/10/01 05:02:48;;;;;;;2.37;1.83;;;;;;;11.71;100.00;99954.78;5030311;28;20089;-91
2022/10/01 05:05:14;;;;;;;1.93;1.73;;;;;;;11.77;100.00;99967.41;5030580;28;20369;-92
2022/10/01 05:07:40;;;;;;;2.10;1.90;;;;;;;11.71;100.00;99968.34;5031218;28;20102;-92
2022/10/01 05:10:09;;;;;;;3.13;1.77;;;;;;;11.70;100.00;99972.97;5029885;28;20075;-93
2022/10/01 05:12:34;;;;;;;2.00;1.80;;;;;;;11.72;100.00;99965.44;5030679;28;20458;-90
2022/10/01 05:15:00;;;;;;;2.43;1.97;;;;;;;11.72;100.00;99983.56;5029579;28;20048;-91
2022/10/01 05:17:25;;;;;;;2.97;2.00;;;;;;;11.76;100.00;99992.88;5009022;28;20473;-93
2022/10/01 05:19:51;;;;;;;2.77;2.00;;;;;;;11.73;100.00;99987.94;5031145;28;20056;-91
2022/10/01 05:22:16;;;;;;;2.40;2.17;;;;;;;11.70;100.00;99983.00;5029758;28;20115;-92
2022/10/01 05:24:46;;;;;;;2.60;2.10;;;;;;;11.81;100.00;100001.94;5031014;28;20141;-92
2022/10/01 05:27:12;;;;;;;2.33;2.10;;;;;;;11.81;100.00;99999.22;5029493;28;20421;-91
2022/10/01 05:29:41;;;;;;;4.53;2.43;;;;;;;11.83;100.00;99996.28;5028650;28;20069;-91
2022/10/01 05:32:08;;;;;;;2.63;2.37;;;;;;;11.93;100.00;99998.38;5029011;28;20033;-90
2022/10/01 05:34:34;;;;;;;3.47;2.50;;;;;;;11.90;100.00;100007.00;5003260;28;20075;-90
2022/10/01 05:36:59;;;;;;;3.87;2.80;;;;;;;11.89;100.00;100000.75;5029028;28;20117;-92
2022/10/01 05:39:25;;;;;;;3.10;2.80;;;;;;;11.92;100.00;100000.25;5029548;28;20458;-91
2022/10/01 05:41:52;;;;;;;3.33;3.00;;;;;;;11.88;100.00;100009.94;5030648;28;20509;-90
2022/10/01 05:44:17;;;;;;;3.90;3.20;;;;;;;11.89;100.00;100008.09;5031489;28;20064;-91
2022/10/01 05:46:42;;;;;;;5.13;3.10;;;;;;;11.89;100.00;100027.91;5030350;28;20087;-89
2022/10/01 05:49:09;;;;;;;4.50;3.57;;;;;;;11.91;100.00;100025.78;4993184;28;20080;-89
2022/10/01 05:51:35;;;;;;;6.47;3.83;;;;;;;11.97;100.00;100032.97;5029225;28;20524;-93
2022/10/01 05:54:01;;;;;;;4.27;3.57;;;;;;;11.96;100.00;100038.66;5030203;28;20088;-90
2022/10/01 05:56:27;;;;;;;5.13;4.10;;;;;;;11.96;100.00;100049.50;5031307;28;20036;-89
2022/10/01 05:58:52;;;;;;;4.57;4.00;;;;;;;12.00;100.00;100045.25;5030969;28;20064;-94
2022/10/01 06:01:17;;;;;;;5.03;4.53;;;;;;;11.95;100.00;100032.41;5028851;28;20781;-91
2022/10/01 06:03:43;;;;;;;5.77;4.63;;;;;;;11.95;100.00;100040.56;5030068;28;21452;-89
2022/10/01 06:06:08;;;;;;;6.40;5.10;;;;;;;12.05;100.00;100044.50;5028052;28;20044;-91
2022/10/01 06:08:34;;;;;;;6.77;5.07;;;;;;;12.06;100.00;100043.47;5031215;28;20211;-92
2022/10/01 06:11:01;;;;;;;5.90;5.20;;;;;;;12.07;100.00;100039.69;5028787;28;20291;-93
2022/10/01 06:13:27;;;;;;;6.17;5.57;;;;;;;12.07;100.00;100045.13;5030659;28;20071;-90
2022/10/01 06:15:52;;;;;;;6.93;5.90;;;;;;;12.10;100.00;100055.47;5030122;28;20049;-91
2022/10/01 06:18:18;;;;;;;8.00;6.30;;;;;;;12.06;100.00;100052.44;5034261;28;20109;-88
2022/10/01 06:20:43;;;;;;;7.60;6.13;;;;;;;12.12;100.00;100065.03;5030413;28;20554;-89
2022/10/01 06:23:11;;;;;;;7.73;6.07;;;;;;;12.14;100.00;100062.06;5030941;28;20033;-90
2022/10/01 06:25:38;;;;;;;6.63;5.93;;;;;;;12.11;100.00;100066.09;5029494;28;20099;-88
2022/10/01 06:28:04;;;;;;;7.83;6.10;;;;;;;12.14;100.00;100072.94;5031109;28;20025;-87
2022/10/01 06:30:31;;;;;;;8.43;6.60;;;;;;;12.14;100.00;100073.78;5030857;28;20041;-87
2022/10/01 06:33:05;;;;;;;10.17;7.50;;;;;;;12.21;100.00;100073.66;5031001;28;20033;-87
2022/10/01 06:35:32;;;;;;;8.90;8.00;;;;;;;12.25;100.00;100069.38;5030672;28;20040;-89
2022/10/01 06:38:00;;;;;;;9.23;7.93;;;;;;;12.31;100.00;100073.00;5029948;28;20041;-90
2022/10/01 06:40:28;;;;;;;10.27;7.70;;;;;;;12.36;100.00;100069.56;5030789;28;20041;-88
2022/10/01 06:42:57;;;;;;;9.93;9.03;;;;;;;12.37;100.00;100071.22;5030141;28;20041;-88
2022/10/01 06:45:23;;;;;;;8.73;7.83;;;;;;;12.37;100.00;100074.75;5022527;28;20032;-87
2022/10/01 06:48:02;;;;;;;11.50;8.00;;;;;;;12.43;100.00;100070.22;5029636;28;20041;-90
2022/10/01 06:50:29;;;;;;;11.47;9.10;;;;;;;12.41;100.00;100075.09;5030817;28;20083;-87
2022/10/01 06:52:55;;;;;;;10.00;8.47;;;;;;;12.41;100.00;100069.66;5029926;28;20281;-87
2022/10/01 06:55:24;;;;;;;9.80;8.40;;;;;;;12.46;100.00;100078.72;5030619;28;20119;-88
2022/10/01 06:58:04;;;;;;;14.00;9.70;;;;;;;12.50;100.00;100082.59;5029706;28;20053;-87
2022/10/01 07:00:31;;;;;;;11.90;8.90;;;;;;;12.56;100.00;100088.94;5030391;28;20044;-87
2022/10/01 07:02:57;;;;;;;12.20;10.27;;;;;;;12.51;100.00;100080.69;5030461;28;20036;-87
2022/10/01 07:05:24;;;;;;;14.23;9.80;;;;;;;12.61;100.00;100099.91;5030330;28;20033;-86
2022/10/01 07:07:49;;;;;;;14.33;10.40;;;;;;;12.61;100.00;100094.50;5030158;28;20048;-87
2022/10/01 07:10:18;;;;;;;15.20;12.10;;;;;;;12.69;100.00;100092.44;5030399;28;20036;-84
2022/10/01 07:12:45;;;;;;;16.50;14.30;;;;;;;12.74;100.00;100092.53;5030592;28;20040;-86
2022/10/01 07:15:10;;;;;;;16.53;14.07;;;;;;;12.78;100.00;100104.56;5029757;28;20504;-86
2022/10/01 07:17:43;;;;;;;16.13;13.47;;;;;;;12.86;100.00;100112.31;5030214;28;20060;-86
2022/10/01 07:20:08;;;;;;;13.93;12.10;;;;;;;12.87;100.00;100107.72;5030277;28;20742;-85
2022/10/01 07:22:34;;;;;;;13.67;12.27;;;;;;;12.88;100.00;100102.03;5030814;28;20069;-86
2022/10/01 07:24:59;;;;;;;14.00;11.20;;;;;;;12.91;100.00;100111.59;5029724;28;20053;-86
2022/10/01 07:27:24;;;;;;;13.07;9.90;;;;;;;12.98;100.00;100102.19;5030023;28;20463;-86
2022/10/01 07:29:50;;;;;;;12.43;10.17;;;;;;;13.18;100.00;100117.22;5030012;28;20452;-86
2022/10/01 07:32:16;;;;;;;12.53;9.70;;;;;;;13.38;100.00;100122.19;5029630;28;20045;-87
2022/10/01 07:34:41;;;;;;;10.97;8.60;;;;;;;13.42;100.00;100125.22;5030197;28;20037;-87
2022/10/01 07:37:07;;;;;;;9.23;8.03;;;;;;;13.51;100.00;100119.13;5029428;28;20558;-86
2022/10/01 07:39:33;;;;;;;11.00;8.30;;;;;;;13.57;100.00;100128.22;5030352;28;20037;-86
2022/10/01 07:41:59;;;;;;;13.33;9.90;;;;;;;13.56;100.00;100120.25;5029612;28;20041;-87
2022/10/01 07:44:26;;;;;;;13.20;11.23;;;;;;;13.54;100.00;100128.69;5030326;28;20461;-86
2022/10/01 07:46:52;;;;;;;14.77;11.60;;;;;;;13.50;100.00;100128.38;5029481;28;20045;-88
2022/10/01 07:49:17;;;;;;;14.53;12.73;;;;;;;13.50;100.00;100138.41;5030199;28;20040;-89
2022/10/01 07:51:43;;;;;;;13.90;12.33;;;;;;;13.41;100.00;100135.31;5030477;28;20064;-89
2022/10/01 07:54:09;;;;;;;14.23;11.37;;;;;;;13.40;100.00;100151.88;5005034;28;20439;-88
2022/10/01 07:56:34;;;;;;;14.07;10.30;;;;;;;13.43;100.00;100154.91;5027966;28;20049;-91
2022/10/01 07:59:00;;;;;;;14.60;9.67;;;;;;;13.33;100.00;100160.19;5031338;28;20032;-89
2022/10/01 08:01:25;;;;;;;13.27;10.63;;;;;;;13.27;100.00;100170.16;5031646;28;20040;-90
2022/10/01 08:03:51;;;;;;;13.40;10.80;;;;;;;13.20;100.00;100163.22;5031824;28;20121;-89
2022/10/01 08:06:18;;;;;;;13.00;10.40;;;;;;;13.16;100.00;100161.00;5031829;28;20068;-88
2022/10/01 08:08:44;;;;;;;10.37;8.50;;;;;;;13.16;100.00;100160.16;5031085;28;20040;-90
2022/10/01 08:11:13;;;;;;;11.10;7.00;;;;;;;13.13;100.00;100157.94;5032270;28;20047;-91
2022/10/01 08:13:39;;;;;;;7.03;6.03;;;;;;;13.07;100.00;100167.91;5031009;28;20432;-91
2022/10/01 08:16:08;;;;;;;7.23;5.80;;;;;;;13.03;100.00;100168.63;5030180;28;20470;-91
2022/10/01 08:18:34;;;;;;;5.50;5.00;;;;;;;13.09;100.00;100184.78;5032889;28;20049;-89
2022/10/01 08:21:02;;;;;;;7.87;5.70;;;;;;;13.09;100.00;100201.09;5035999;28;20048;-90
2022/10/01 08:23:32;;;;;;;8.87;6.17;;;;;;;13.29;100.00;100195.19;5034997;28;21479;-89
2022/10/01 08:26:06;;;;;;;8.97;6.70;;;;;;;13.35;100.00;100204.28;5033693;28;20146;-88
2022/10/01 08:28:33;;;;;;;10.18;7.28;;;;;;;13.37;100.00;100217.66;5033444;28;20630;-87
2022/10/01 08:31:02;;;;;;;11.03;8.30;;;;;;;13.37;100.00;100223.09;5032808;28;20173;-86
2022/10/01 08:33:27;;;;;;;16.73;10.17;;;;;;;13.37;100.00;100214.94;5032991;28;20110;-87
2022/10/01 08:35:53;;;;;;;14.53;12.00;;;;;;;13.34;100.00;100213.50;5032709;28;21445;-85
2022/10/01 08:38:18;;;;;;;16.70;12.43;;;;;;;13.38;100.00;100220.16;5032468;28;20037;-87
2022/10/01 08:40:47;;;;;;;18.17;14.03;;;;;;;13.38;100.00;100222.88;5033049;28;20045;-86
2022/10/01 08:43:18;;;;;;;17.07;13.00;;;;;;;13.43;100.00;100222.13;5034802;28;20115;-91
2022/10/01 08:45:47;;;;;;;18.23;14.40;;;;;;;13.46;100.00;100221.63;5035368;28;20028;-90
2022/10/01 08:48:24;;;;;;;17.70;14.13;;;;;;;13.45;100.00;100223.53;5034036;28;20040;-91
2022/10/01 08:51:08;;;;;;;18.77;14.17;;;;;;;13.57;100.00;100220.75;5009983;28;20980;-91
2022/10/01 08:53:39;;;;;;;17.67;14.82;;;;;;;13.85;100.00;100219.81;5033024;28;20040;-89
2022/10/01 08:56:10;;;;;;;17.27;13.63;;;;;;;14.18;100.00;100218.13;5032864;28;20091;-91
2022/10/01 08:58:47;;;;;;;17.33;13.00;;;;;;;14.43;100.00;100221.41;5034981;28;20040;-91
2022/10/01 09:01:12;;;;;;;16.57;12.20;;;;;;;14.63;100.00;100221.72;5033155;28;20116;-88
2022/10/01 09:03:38;;;;;;;14.03;10.37;;;;;;;14.84;100.00;100216.50;5034031;28;20039;-89
2022/10/01 09:06:11;;;;;;;13.60;10.37;;;;;;;15.15;100.00;100225.00;5033594;28;20041;-87
2022/10/01 09:08:49;;;;;;;13.33;8.70;;;;;;;15.12;100.00;100223.63;5032750;28;20916;-90
2022/10/01 09:11:37;;;;;;;10.50;8.03;;;;;;;15.08;100.00;100216.19;5032748;28;20036;-89
2022/10/01 09:14:22;;;;;;;12.03;8.10;;;;;;;15.41;100.00;100241.63;4999260;28;20083;-91
2022/10/01 09:17:12;;;;;;;8.60;6.70;;;;;;;15.58;100.00;100244.25;5030961;28;20523;-90
2022/10/01 09:19:43;;;;;;;10.33;6.43;;;;;;;15.77;100.00;100247.41;5032340;28;20033;-89
2022/10/01 09:22:36;;;;;;;9.53;6.00;;;;;;;16.01;100.00;100250.63;5031804;28;20041;-90
2022/10/01 09:25:08;;;;;;;9.80;5.90;;;;;;;16.11;100.00;100256.13;5032258;28;21326;-90
2022/10/01 09:27:36;;;;;;;9.43;5.17;;;;;;;16.15;100.00;100260.00;5030164;28;20967;-91
2022/10/01 09:30:10;;;;;;;8.87;4.03;;;;;;;15.96;99.62;100256.84;5031178;28;20492;-89
2022/10/01 09:32:41;;;;;;;11.30;4.28;;;;;;;15.94;100.00;100259.03;5031365;28;20052;-87
2022/10/01 09:35:55;;;;;;;12.50;3.50;;;;;;;15.98;100.00;100265.63;5032257;28;20488;-89
2022/10/01 09:38:35;;;;;;;8.63;3.37;;;;;;;15.77;100.00;100271.97;4923957;29;20115;-90
2022/10/01 09:41:01;;;;;;;8.50;3.63;;;;;;;15.67;100.00;100272.72;5020160;28;20041;-89
2022/10/01 09:43:29;;;;;;;13.30;3.93;;;;;;;15.59;100.00;100260.38;5031616;28;20127;-89
2022/10/01 09:45:55;;;;;;;12.77;3.27;;;;;;;15.88;99.53;100262.81;5030710;28;20029;-88
2022/10/01 09:48:25;;;;;;;11.23;3.20;;;;;;;16.02;100.00;100268.66;5029488;28;20078;-87
2022/10/01 09:50:57;;;;;;;10.57;2.60;;;;;;;16.18;97.92;100267.69;5031969;28;20037;-90
2022/10/01 09:53:35;;;;;;;13.83;3.33;;;;;;;16.15;96.31;100267.38;5031694;28;20043;-88
2022/10/01 09:56:25;;;;;;;13.60;2.97;;;;;;;16.20;96.66;100270.97;5031627;28;20060;-89
2022/10/01 09:58:54;;;;;;;14.00;2.87;;;;;;;16.22;97.03;100273.44;5029693;28;20115;-88
2022/10/01 10:01:44;;;;;;;8.63;2.37;;;;;;;16.40;93.92;100280.41;5031612;28;20052;-87
2022/10/01 10:04:10;;;;;;;11.73;2.30;;;;;;;16.34;91.87;100276.78;5020230;28;20050;-89
2022/10/01 10:06:37;;;;;;;10.77;2.27;;;;;;;16.35;91.78;100270.22;5031055;28;20485;-87
2022/10/01 10:09:03;;;;;;;15.00;3.13;;;;;;;16.34;93.92;100281.44;5031013;28;20033;-89
2022/10/01 10:11:30;;;;;;;12.03;2.70;;;;;;;16.29;93.83;100286.88;5031412;28;20377;-89
2022/10/01 10:14:02;;;;;;;11.63;2.40;;;;;;;16.09;93.80;100280.19;5030340;28;20461;-88
2022/10/01 10:16:34;;;;;;;12.27;2.90;;;;;;;15.94;94.29;100291.81;5031336;28;20393;-88
2022/10/01 10:19:14;;;;;;;10.30;2.60;;;;;;;15.88;96.85;100281.94;5030238;28;20128;-89
2022/10/01 10:21:58;;;;;;;14.50;2.90;;;;;;;15.98;94.81;100298.41;5031721;28;20072;-89
2022/10/01 10:24:26;;;;;;;12.10;2.47;;;;;;;16.00;92.86;100306.34;5032851;28;20465;-86
2022/10/01 10:27:04;;;;;;;12.63;2.67;;;;;;;15.82;92.46;100305.66;5035545;28;20102;-86
2022/10/01 10:29:31;;;;;;;12.07;2.33;;;;;;;15.82;91.17;100318.50;5037434;28;20060;-87
2022/10/01 10:32:13;;;;;;;14.93;2.70;;;;;;;15.69;90.43;100317.81;5030885;28;20168;-87
2022/10/01 10:34:45;;;;;;;12.87;2.33;;;;;;;15.86;90.52;100336.03;5031067;28;20481;-89
2022/10/01 10:37:15;;;;;;;10.27;2.40;;;;;;;16.08;91.36;100329.66;5030170;28;20389;-90
2022/10/01 10:39:45;;;;;;;12.23;2.23;;;;;;;16.39;91.28;100344.34;5031032;28;20079;-90
2022/10/01 10:42:17;;;;;;;10.27;2.63;;;;;;;16.60;88.08;100349.94;5039414;28;20028;-93
2022/10/01 10:44:48;;;;;;;11.50;2.37;;;;;;;16.82;88.38;100349.78;5034624;28;20076;-88
2022/10/01 10:47:15;;;;;;;11.77;2.40;;;;;;;16.99;86.92;100350.47;5034632;28;20048;-94
2022/10/01 10:49:47;;;;;;;12.37;2.47;;;;;;;17.09;85.48;100352.41;5046402;28;20040;-89
2022/10/01 10:52:29;;;;;;;11.50;2.35;;;;;;;17.27;84.70;100364.81;5047715;28;20044;-87
2022/10/01 10:54:57;;;;;;;14.82;2.60;;;;;;;17.26;85.24;100354.94;5031113;28;20029;-87
2022/10/01 10:57:28;;;;;;;10.38;2.50;;;;;;;17.39;80.42;100372.78;5031327;28;20310;-88
2022/10/01 11:00:24;;;;;;;13.10;2.40;;;;;;;17.53;82.66;100378.59;5035441;28;20035;-87
2022/10/01 11:02:59;;;;;;;11.00;2.53;;;;;;;17.42;82.21;100376.91;4995316;28;20045;-87
2022/10/01 11:05:30;;;;;;;;;;;;;;;17.49;81.40;100382.97;5027923;28;20021;-90
2022/10/01 11:07:58;;;;;;;10.30;2.10;;;;;;;16.92;79.23;100384.63;5027288;28;20258;-88
2022/10/01 11:10:34;;;;;;;9.90;2.37;;;;;;;16.74;77.32;100385.88;5027319;28;20035;-87
2022/10/01 11:13:38;;;;;;;10.83;2.50;;;;;;;16.69;78.33;100389.41;5027195;28;20071;-88
2022/10/01 11:16:35;;;;;;;9.23;2.57;;;;;;;16.43;78.64;100402.06;5027111;28;20048;-88
2022/10/01 11:19:14;;;;;;;14.63;2.73;;;;;;;16.14;81.20;100403.22;5026373;28;20152;-87
2022/10/01 11:22:14;;;;;;;11.43;2.60;;;;;;;16.05;83.76;100402.03;5027365;28;20140;-88
2022/10/01 11:24:44;;;;;;;12.87;2.80;;;;;;;15.91;81.00;100409.84;5025481;28;20092;-87
2022/10/01 11:27:57;;;;;;;11.43;2.53;;;;;;;15.88;82.69;100409.50;5026621;28;20041;-87